Date,TemperatureHighF,TemperatureAvgF,TemperatureLowF,DewpointHighF,DewpointAvgF,DewpointLowF,HumidityHigh,HumidityAvg,HumidityLow,PressureMaxIn,PressureMinIn,WindSpeedMaxMPH,WindSpeedAvgMPH,GustSpeedMaxMPH,PrecipitationSumIn
2014-1-1,46,33,22,28,22,19,90,66,37,32.25,20.49,13,1,13,0.00
2014-1-2,46,38,18,43,32,9,91,80,60,31.91,28.23,16,3,19,0.26
2014-1-3,27,17,10,11,7,2,82,64,38,31.78,29.72,25,2,25,0.00
2014-1-4,42,20,15,17,11,8,82,70,26,29.72,29.72,14,1,14,0.01
2014-1-7,16,13,11,6,6,4,81,71,59,0.00,40.00,2,0,3,0.00
2014-1-8,44,23,8,21,13,5,86,69,35,31.69,29.66,11,1,20,0.00
2014-1-9,55,30,20,39,21,15,90,74,23,32.33,23.21,12,0,17,0.41
2014-1-10,58,45,38,53,43,36,95,92,82,32.35,26.57,12,0,12,0.31
2014-1-11,59,52,39,54,45,29,95,78,49,30.98,25.01,27,3,27,1.46
2014-1-12,54,41,33,32,28,25,81,60,38,30.81,29.66,7,1,10,0.00
2014-1-13,53,44,31,39,31,26,87,62,43,30.81,30.14,11,2,13,0.11
2014-1-14,52,44,30,41,35,22,93,74,31,30.54,29.78,14,2,14,0.10
2014-1-15,32,29,23,29,25,18,92,87,79,30.55,29.69,9,0,9,0.07
2014-1-16,40,28,16,20,16,11,88,64,31,29.97,29.97,17,2,17,0.01
2014-1-17,44,34,24,23,18,10,68,52,32,29.97,29.97,22,3,22,0.00
2014-1-18,37,27,15,15,10,5,74,50,29,29.97,29.97,23,3,23,0.00
2014-1-19,47,37,31,27,21,14,73,54,37,29.97,28.51,15,2,15,0.00
2014-1-20,59,43,32,29,22,10,73,44,29,30.19,28.51,14,2,14,0.00
2014-1-21,45,32,13,29,23,7,86,70,50,30.19,30.19,23,3,23,0.00
2014-1-22,30,16,6,11,5,-1,82,64,31,30.19,30.19,11,1,11,0.01
2014-1-23,28,18,6,12,6,-3,80,60,43,30.76,30.19,10,1,11,0.00
2014-1-24,27,14,-2,2,-3,-6,80,51,28,30.76,30.76,12,1,12,0.00
2014-1-25,34,27,16,23,10,-9,80,50,22,30.76,30.76,28,4,28,0.00
2014-1-26,50,37,23,29,21,10,72,52,39,30.76,30.76,26,2,26,0.00
2014-1-27,49,36,19,36,26,5,86,67,53,30.76,30.76,9,2,12,0.00
2014-1-28,21,17,14,18,9,4,86,70,54,30.76,19.37,7,1,7,0.00
2014-1-29,26,13,4,9,3,-3,82,65,35,25.03,19.37,9,1,9,0.10
2014-1-30,41,19,-2,14,5,-7,85,61,24,24.20,22.45,12,1,12,0.03
2014-1-31,55,32,16,24,17,11,85,59,24,21.19,21.19,10,1,14,0.00
2014-2-1,64,32,22,46,26,18,88,78,36,21.19,21.19,17,1,17,0.00
2014-2-2,58,49,36,52,44,33,92,82,73,32.05,18.33,25,2,25,0.36
2014-2-3,60,50,36,55,45,33,93,85,73,30.03,18.33,20,3,20,1.46
2014-2-4,56,42,34,51,39,33,94,87,75,30.71,20.70,22,1,22,0.17
2014-2-5,56,46,26,51,38,22,91,75,48,30.71,29.86,25,4,25,0.28
2014-2-6,35,27,22,24,21,18,89,78,62,29.99,24.78,7,1,7,0.00
2014-2-7,47,32,23,28,25,20,89,75,47,29.99,24.79,21,1,21,0.00
2014-2-8,43,36,28,34,29,25,90,77,58,31.23,24.79,13,1,13,0.00
2014-2-9,49,36,26,36,30,24,93,80,58,31.23,29.97,9,1,12,0.00
2014-2-10,33,31,29,30,29,27,93,91,88,29.97,29.97,4,0,4,0.11
2014-2-11,34,31,28,31,28,26,93,91,87,30.59,29.97,5,0,5,0.08
2014-2-12,30,26,22,28,23,19,92,89,81,30.59,29.27,6,1,6,0.00
2014-2-13,36,29,26,30,26,21,93,87,78,32.42,29.27,13,1,13,0.25
2014-2-14,52,37,21,33,26,18,92,66,38,31.31,30.93,9,2,16,0.33
2014-2-15,37,32,25,33,25,17,93,77,55,30.93,29.92,23,2,23,0.02
2014-2-16,53,39,27,31,26,16,85,60,40,30.59,30.19,19,2,19,0.00
2014-2-17,54,39,24,37,29,22,92,72,44,31.41,30.19,15,2,15,0.14
2014-2-18,63,46,30,41,31,20,94,62,20,31.41,30.13,14,1,14,0.00
2014-2-19,66,54,44,51,46,41,92,76,50,30.91,30.13,16,2,16,0.72
2014-2-20,67,57,43,53,48,41,93,73,53,30.91,28.58,22,3,22,0.00
2014-2-21,63,53,32,53,40,18,91,65,24,31.68,29.80,21,4,29,1.12
2014-2-22,62,45,32,30,25,17,89,52,17,30.04,29.85,8,1,10,0.00
2014-2-23,66,47,36,36,27,19,69,48,26,30.11,30.04,17,1,17,0.00
2014-2-24,51,40,29,34,29,22,91,66,37,30.11,30.02,13,1,13,0.00
2014-2-25,53,39,27,35,26,21,83,61,38,30.00,19.15,11,2,14,0.00
2014-2-26,40,31,21,24,20,14,78,66,49,31.68,29.04,11,1,11,0.00
2014-2-27,46,27,14,16,12,9,87,58,27,32.29,26.51,12,1,12,0.00
2014-2-28,50,32,15,21,16,10,85,54,30,29.98,29.75,9,1,11,0.00
2014-3-1,58,44,35,37,29,18,78,56,43,29.94,29.57,12,2,14,0.00
2014-3-2,66,52,36,50,42,32,87,70,55,29.84,29.55,17,2,17,0.00
2014-3-3,57,41,29,48,37,27,93,87,65,31.85,29.50,13,2,13,0.53
2014-3-4,44,35,28,36,30,26,92,81,62,29.92,29.59,8,1,9,0.00
2014-3-5,59,41,29,35,30,21,92,69,31,29.90,29.59,10,1,10,0.00
2014-3-6,41,34,28,31,24,18,92,70,41,29.93,29.59,10,1,10,0.00
2014-3-7,53,40,32,41,35,31,94,84,60,29.89,29.43,5,0,8,0.45
2014-3-8,64,45,29,41,33,27,94,67,31,31.65,29.57,16,1,16,0.00
2014-3-9,62,47,34,41,35,30,89,64,40,32.13,28.73,13,1,13,0.00
2014-3-10,69,48,29,42,33,25,85,60,28,30.31,30.11,14,1,14,0.00
2014-3-11,74,54,32,44,38,28,88,56,29,30.58,30.15,14,1,14,0.00
2014-3-12,64,52,29,54,43,20,92,74,55,31.01,28.44,17,4,25,0.06
2014-3-13,40,33,26,21,13,6,81,44,30,30.39,27.28,23,2,23,0.01
2014-3-14,59,36,20,30,20,15,82,58,27,31.84,28.55,15,2,25,0.00
2014-3-15,63,52,42,40,33,25,69,49,36,31.36,28.47,13,2,14,0.00
2014-3-16,48,44,41,46,40,32,93,85,67,31.55,28.47,4,0,5,0.39
2014-3-17,45,40,36,41,38,33,94,90,83,30.35,30.12,8,1,8,0.36
2014-3-18,55,43,34,44,38,32,94,84,64,30.38,28.52,16,1,16,0.00
2014-3-19,65,50,36,46,40,34,93,71,43,31.34,28.48,15,3,18,0.00
2014-3-20,57,46,34,40,35,23,81,66,29,31.51,28.48,10,2,12,0.00
2014-3-21,65,45,25,30,26,22,88,52,22,30.34,25.26,17,1,17,0.00
2014-3-22,66,56,42,43,36,26,76,48,39,32.35,25.72,13,2,13,0.00
2014-3-23,48,42,33,41,36,24,92,80,57,30.31,28.51,9,1,11,0.39
2014-3-24,53,38,23,28,23,18,88,58,32,30.43,28.55,9,1,10,0.00
2014-3-25,38,32,24,32,25,9,92,76,50,30.67,30.14,22,2,22,0.17
2014-3-26,43,29,16,20,14,8,76,54,34,31.28,30.22,16,2,16,0.03
2014-3-27,59,41,23,29,22,15,84,51,26,32.32,30.19,17,2,17,0.00
2014-3-28,55,52,47,51,46,28,90,80,45,30.29,20.07,15,2,15,0.07
2014-3-29,62,51,37,55,47,31,95,86,66,31.53,29.63,13,2,13,0.10
2014-3-30,52,41,32,32,29,24,92,65,37,32.21,27.56,26,3,26,0.05
2014-3-31,74,48,26,37,28,19,86,54,17,32.05,24.28,16,1,16,0.00
2014-4-1,77,57,40,46,39,34,83,55,26,30.16,28.87,12,2,15,0.00
2014-4-2,80,59,37,47,39,32,92,52,27,28.87,20.96,11,2,18,0.00
2014-4-3,81,66,52,55,46,33,77,52,29,30.10,16.62,16,2,21,0.00
2014-4-4,69,62,50,56,50,45,89,66,53,31.54,20.99,19,4,19,0.01
2014-4-5,62,48,40,49,37,33,82,67,38,31.32,29.98,13,2,13,0.00
2014-4-6,63,46,36,42,36,32,88,69,38,30.58,17.91,15,1,15,0.05
2014-4-7,61,51,42,54,47,40,95,87,74,30.09,28.61,12,2,14,1.88
2014-4-8,56,47,41,51,39,34,86,72,57,30.03,29.75,17,2,17,0.00
2014-4-9,59,46,38,41,35,29,92,67,34,30.12,23.10,17,2,17,0.02
2014-4-10,70,52,30,39,34,27,91,56,28,30.49,29.67,14,2,18,0.00
2014-4-11,72,58,45,43,37,34,70,48,30,30.90,29.67,18,2,18,0.00
2014-4-12,79,62,47,51,46,40,84,56,34,32.35,28.26,13,1,13,0.00
2014-4-13,79,65,53,55,51,47,81,61,40,30.12,28.24,18,2,18,0.00
2014-4-14,65,62,58,57,53,50,90,71,64,32.25,29.95,16,2,18,0.25
2014-4-15,60,45,31,55,40,21,93,84,67,31.24,29.96,23,2,23,0.59
2014-4-16,59,39,23,31,23,19,86,57,28,31.56,30.11,16,2,16,0.01
2014-4-17,63,44,27,37,29,23,92,60,31,32.35,30.08,12,1,12,0.00
2014-4-18,54,45,38,45,37,31,93,74,54,30.35,21.28,8,0,8,0.17
2014-4-19,53,47,44,48,44,42,95,90,79,31.72,30.07,4,0,6,0.39